sensor_id;sensor_type;location;lat;lon;timestamp;pressure;altitude;pressure_sealevel;temperature;humidity
15405;BME280;7801;48.124;11.590;2023-02-18T00:01:17;96286.47;;;11.97;79.44
15405;BME280;7801;48.124;11.590;2023-02-18T00:03:43;96276.97;;;11.86;80.05
15405;BME280;7801;48.124;11.590;2023-02-18T00:06:12;96289.28;;;11.77;80.13
15405;BME280;7801;48.124;11.590;2023-02-18T00:08:38;96289.69;;;11.94;79.79
15405;BME280;7801;48.124;11.590;2023-02-18T00:11:05;96290.28;;;11.86;80.05
15405;BME280;7801;48.124;11.590;2023-02-18T00:13:30;96290.25;;;11.91;79.80
15405;BME280;7801;48.124;11.590;2023-02-18T00:16:04;96291.84;;;11.92;79.80
15405;BME280;7801;48.124;11.590;2023-02-18T00:18:29;96277.78;;;11.86;80.04
15405;BME280;7801;48.124;11.590;2023-02-18T00:20:55;96275.63;;;11.88;80.03
15405;BME280;7801;48.124;11.590;2023-02-18T00:23:20;96266.34;;;11.86;80.21
15405;BME280;7801;48.124;11.590;2023-02-18T00:25:46;96267.09;;;11.91;80.36
15405;BME280;7801;48.124;11.590;2023-02-18T00:28:11;96264.47;;;11.86;80.38
15405;BME280;7801;48.124;11.590;2023-02-18T00:30:40;96260.53;;;11.84;80.65
15405;BME280;7801;48.124;11.590;2023-02-18T00:33:05;96265.38;;;11.71;81.14
15405;BME280;7801;48.124;11.590;2023-02-18T00:35:31;96261.63;;;11.73;81.42
15405;BME280;7801;48.124;11.590;2023-02-18T00:37:56;96266.34;;;11.86;80.94
15405;BME280;7801;48.124;11.590;2023-02-18T00:40:21;96264.81;;;11.75;81.37
15405;BME280;7801;48.124;11.590;2023-02-18T00:42:47;96268.56;;;11.68;81.59
15405;BME280;7801;48.124;11.590;2023-02-18T00:45:12;96266.97;;;11.73;81.69
15405;BME280;7801;48.124;11.590;2023-02-18T00:47:37;96257.41;;;11.71;81.96
15405;BME280;7801;48.124;11.590;2023-02-18T00:50:03;96263.50;;;11.77;81.53
15405;BME280;7801;48.124;11.590;2023-02-18T00:52:28;96254.19;;;11.75;82.16
15405;BME280;7801;48.124;11.590;2023-02-18T00:54:54;96256.63;;;11.66;82.05
15405;BME280;7801;48.124;11.590;2023-02-18T00:57:19;96259.91;;;11.53;82.69
15405;BME280;7801;48.124;11.590;2023-02-18T00:59:44;96259.56;;;11.64;82.37
15405;BME280;7801;48.124;11.590;2023-02-18T01:02:10;96265.19;;;11.63;82.36
15405;BME280;7801;48.124;11.590;2023-02-18T01:04:35;96272.94;;;11.49;82.94
15405;BME280;7801;48.124;11.590;2023-02-18T01:07:00;96261.25;;;11.50;82.93
15405;BME280;7801;48.124;11.590;2023-02-18T01:09:26;96261.00;;;11.47;83.36
15405;BME280;7801;48.124;11.590;2023-02-18T01:11:51;96253.53;;;11.54;83.10
15405;BME280;7801;48.124;11.590;2023-02-18T01:14:16;96258.59;;;11.50;83.08
15405;BME280;7801;48.124;11.590;2023-02-18T01:16:42;96256.41;;;11.62;82.96
15405;BME280;7801;48.124;11.590;2023-02-18T01:19:07;96253.56;;;11.49;83.57
15405;BME280;7801;48.124;11.590;2023-02-18T01:21:33;96252.25;;;11.46;84.23
15405;BME280;7801;48.124;11.590;2023-02-18T01:23:58;96255.41;;;11.53;83.94
15405;BME280;7801;48.124;11.590;2023-02-18T01:26:23;96243.28;;;11.37;84.81
15405;BME280;7801;48.124;11.590;2023-02-18T01:28:49;96247.72;;;11.47;84.58
15405;BME280;7801;48.124;11.590;2023-02-18T01:31:15;96244.78;;;11.48;84.49
15405;BME280;7801;48.124;11.590;2023-02-18T01:33:41;96241.41;;;11.38;84.75
15405;BME280;7801;48.124;11.590;2023-02-18T01:36:06;96243.41;;;11.56;84.81
15405;BME280;7801;48.124;11.590;2023-02-18T01:38:32;96247.69;;;11.52;84.55
15405;BME280;7801;48.124;11.590;2023-02-18T01:40:58;96242.94;;;11.49;84.68
15405;BME280;7801;48.124;11.590;2023-02-18T01:43:24;96240.75;;;11.56;84.72
15405;BME280;7801;48.124;11.590;2023-02-18T01:46:03;96236.78;;;11.53;85.11
15405;BME280;7801;48.124;11.590;2023-02-18T01:48:38;96243.75;;;11.44;85.52
15405;BME280;7801;48.124;11.590;2023-02-18T01:56:30;96239.44;;;11.53;85.47
15405;BME280;7801;48.124;11.590;2023-02-18T01:59:01;96244.78;;;11.48;85.75
15405;BME280;7801;48.124;11.590;2023-02-18T02:01:27;96236.78;;;11.53;85.66
15405;BME280;7801;48.124;11.590;2023-02-18T02:03:54;96240.91;;;11.35;86.29
15405;BME280;7801;48.124;11.590;2023-02-18T02:06:22;96239.50;;;11.43;86.22
15405;BME280;7801;48.124;11.590;2023-02-18T02:08:49;96244.25;;;11.51;85.77
15405;BME280;7801;48.124;11.590;2023-02-18T02:11:23;96231.53;;;11.43;86.16
15405;BME280;7801;48.124;11.590;2023-02-18T02:17:05;96231.97;;;11.60;85.68
15405;BME280;7801;48.124;11.590;2023-02-18T02:24:53;96224.31;;;11.54;85.71
15405;BME280;7801;48.124;11.590;2023-02-18T02:33:47;96217.09;;;11.59;85.81
15405;BME280;7801;48.124;11.590;2023-02-18T02:36:30;96222.44;;;11.54;86.07
15405;BME280;7801;48.124;11.590;2023-02-18T02:39:26;96223.56;;;11.43;86.33
15405;BME280;7801;48.124;11.590;2023-02-18T02:42:18;96220.34;;;11.46;86.30
15405;BME280;7801;48.124;11.590;2023-02-18T02:45:02;96215.28;;;11.50;86.19
15405;BME280;7801;48.124;11.590;2023-02-18T02:48:24;96221.91;;;11.52;86.22
15405;BME280;7801;48.124;11.590;2023-02-18T02:50:35;96215.50;;;11.58;86.22
15405;BME280;7801;48.124;11.590;2023-02-18T02:53:10;96213.41;;;11.55;86.60
15405;BME280;7801;48.124;11.590;2023-02-18T02:55:38;96206.47;;;11.59;87.07
15405;BME280;7801;48.124;11.590;2023-02-18T02:58:03;96211.00;;;11.54;87.21
15405;BME280;7801;48.124;11.590;2023-02-18T03:03:42;96198.28;;;11.51;87.55
15405;BME280;7801;48.124;11.590;2023-02-18T03:09:04;96196.13;;;11.53;88.13
15405;BME280;7801;48.124;11.590;2023-02-18T03:11:45;96185.22;;;11.54;88.03
15405;BME280;7801;48.124;11.590;2023-02-18T03:14:27;96186.56;;;11.52;88.16
15405;BME280;7801;48.124;11.590;2023-02-18T03:19:37;96190.94;;;11.71;87.52
15405;BME280;7801;48.124;11.590;2023-02-18T03:22:17;96185.66;;;11.66;87.63
15405;BME280;7801;48.124;11.590;2023-02-18T03:24:49;96189.66;;;11.64;87.63
15405;BME280;7801;48.124;11.590;2023-02-18T03:27:31;96199.22;;;11.65;87.96
15405;BME280;7801;48.124;11.590;2023-02-18T03:30:06;96192.94;;;11.56;87.99
15405;BME280;7801;48.124;11.590;2023-02-18T03:32:36;96195.78;;;11.64;87.62
15405;BME280;7801;48.124;11.590;2023-02-18T03:35:10;96197.87;;;11.67;87.63
15405;BME280;7801;48.124;11.590;2023-02-18T03:37:41;96191.03;;;11.61;87.43
15405;BME280;7801;48.124;11.590;2023-02-18T03:40:09;96198.13;;;11.76;87.27
15405;BME280;7801;48.124;11.590;2023-02-18T03:42:35;96195.69;;;11.75;86.76
15405;BME280;7801;48.124;11.590;2023-02-18T03:45:00;96189.97;;;11.62;87.54
15405;BME280;7801;48.124;11.590;2023-02-18T03:47:26;96188.13;;;11.58;87.36
15405;BME280;7801;48.124;11.590;2023-02-18T03:49:52;96198.94;;;11.66;87.48
15405;BME280;7801;48.124;11.590;2023-02-18T03:52:17;96184.81;;;11.71;86.87
15405;BME280;7801;48.124;11.590;2023-02-18T03:54:42;96187.84;;;11.59;87.15
15405;BME280;7801;48.124;11.590;2023-02-18T03:57:08;96192.38;;;11.59;87.51
15405;BME280;7801;48.124;11.590;2023-02-18T03:59:33;96174.47;;;11.69;86.85
15405;BME280;7801;48.124;11.590;2023-02-18T04:08:42;96193.59;;;11.71;86.69
15405;BME280;7801;48.124;11.590;2023-02-18T04:11:07;96186.97;;;11.69;86.94
15405;BME280;7801;48.124;11.590;2023-02-18T04:13:33;96184.00;;;11.81;86.85
15405;BME280;7801;48.124;11.590;2023-02-18T04:15:58;96189.91;;;11.67;86.90
15405;BME280;7801;48.124;11.590;2023-02-18T04:18:24;96181.38;;;11.70;86.55
15405;BME280;7801;48.124;11.590;2023-02-18T04:20:49;96187.00;;;11.64;87.36
15405;BME280;7801;48.124;11.590;2023-02-18T04:23:14;96179.03;;;11.64;87.09
15405;BME280;7801;48.124;11.590;2023-02-18T04:25:40;96185.13;;;11.64;87.04
15405;BME280;7801;48.124;11.590;2023-02-18T04:28:05;96183.34;;;11.60;87.19
15405;BME280;7801;48.124;11.590;2023-02-18T04:30:31;96188.13;;;11.58;87.61
15405;BME280;7801;48.124;11.590;2023-02-18T04:32:56;96179.44;;;11.47;87.55
15405;BME280;7801;48.124;11.590;2023-02-18T04:35:21;96183.16;;;11.46;88.00
15405;BME280;7801;48.124;11.590;2023-02-18T04:37:47;96171.91;;;11.59;87.56
15405;BME280;7801;48.124;11.590;2023-02-18T04:40:12;96185.19;;;11.59;87.35
15405;BME280;7801;48.124;11.590;2023-02-18T04:42:38;96192.66;;;11.57;87.31
15405;BME280;7801;48.124;11.590;2023-02-18T04:45:03;96189.53;;;11.45;87.54
15405;BME280;7801;48.124;11.590;2023-02-18T04:47:29;96191.38;;;11.50;87.31
15405;BME280;7801;48.124;11.590;2023-02-18T04:49:54;96190.16;;;11.32;87.69
15405;BME280;7801;48.124;11.590;2023-02-18T04:52:19;96189.31;;;11.42;87.45
15405;BME280;7801;48.124;11.590;2023-02-18T04:54:45;96190.34;;;11.46;87.41
15405;BME280;7801;48.124;11.590;2023-02-18T04:57:10;96187.91;;;11.49;86.99
15405;BME280;7801;48.124;11.590;2023-02-18T04:59:36;96198.53;;;11.54;86.70
15405;BME280;7801;48.124;11.590;2023-02-18T05:02:02;96204.19;;;11.43;86.95
15405;BME280;7801;48.124;11.590;2023-02-18T05:04:27;96197.22;;;11.47;86.97
15405;BME280;7801;48.124;11.590;2023-02-18T05:06:53;96188.81;;;11.40;87.11
15405;BME280;7801;48.124;11.590;2023-02-18T05:09:18;96202.28;;;11.48;86.38
15405;BME280;7801;48.124;11.590;2023-02-18T05:11:45;96198.00;;;11.52;86.50
15405;BME280;7801;48.124;11.590;2023-02-18T05:14:12;96185.78;;;11.51;86.46
15405;BME280;7801;48.124;11.590;2023-02-18T05:16:37;96180.59;;;11.36;86.67
15405;BME280;7801;48.124;11.590;2023-02-18T05:19:03;96173.66;;;11.40;86.50
15405;BME280;7801;48.124;11.590;2023-02-18T05:21:28;96169.94;;;11.41;86.19
15405;BME280;7801;48.124;11.590;2023-02-18T05:23:53;96173.06;;;11.43;86.36
15405;BME280;7801;48.124;11.590;2023-02-18T05:26:19;96175.25;;;11.41;86.19
15405;BME280;7801;48.124;11.590;2023-02-18T05:28:44;96177.09;;;11.41;86.13
15405;BME280;7801;48.124;11.590;2023-02-18T05:31:09;96170.88;;;11.55;85.67
15405;BME280;7801;48.124;11.590;2023-02-18T05:33:35;96169.28;;;11.54;85.17
15405;BME280;7801;48.124;11.590;2023-02-18T05:36:00;96188.44;;;11.51;85.30
15405;BME280;7801;48.124;11.590;2023-02-18T05:38:25;96176.53;;;11.44;85.41
15405;BME280;7801;48.124;11.590;2023-02-18T05:40:51;96167.69;;;11.53;85.14
15405;BME280;7801;48.124;11.590;2023-02-18T05:43:16;96184.75;;;11.47;85.07
15405;BME280;7801;48.124;11.590;2023-02-18T05:45:41;96174.22;;;11.37;85.13
15405;BME280;7801;48.124;11.590;2023-02-18T05:48:07;96166.25;;;11.37;85.55
15405;BME280;7801;48.124;11.590;2023-02-18T05:50:32;96172.81;;;11.45;84.78
15405;BME280;7801;48.124;11.590;2023-02-18T05:52:58;96174.59;;;11.54;84.41
15405;BME280;7801;48.124;11.590;2023-02-18T05:55:23;96175.94;;;11.52;84.19
15405;BME280;7801;48.124;11.590;2023-02-18T05:57:49;96164.78;;;11.55;84.51
15405;BME280;7801;48.124;11.590;2023-02-18T06:00:15;96172.06;;;11.39;84.51
15405;BME280;7801;48.124;11.590;2023-02-18T06:02:41;96178.88;;;11.50;84.21
15405;BME280;7801;48.124;11.590;2023-02-18T06:05:07;96179.19;;;11.44;84.23
15405;BME280;7801;48.124;11.590;2023-02-18T06:07:32;96168.00;;;11.47;84.05
15405;BME280;7801;48.124;11.590;2023-02-18T06:09:58;96164.84;;;11.45;84.26
15405;BME280;7801;48.124;11.590;2023-02-18T06:12:23;96162.41;;;11.48;84.52
15405;BME280;7801;48.124;11.590;2023-02-18T06:14:48;96173.56;;;11.50;83.76
15405;BME280;7801;48.124;11.590;2023-02-18T06:17:14;96174.59;;;11.54;83.68
15405;BME280;7801;48.124;11.590;2023-02-18T06:19:40;96177.81;;;11.51;83.59
15405;BME280;7801;48.124;11.590;2023-02-18T06:22:06;96180.75;;;11.50;83.35
15405;BME280;7801;48.124;11.590;2023-02-18T06:24:32;96176.72;;;11.57;83.20
15405;BME280;7801;48.124;11.590;2023-02-18T06:26:57;96184.13;;;11.60;82.78
15405;BME280;7801;48.124;11.590;2023-02-18T06:29:23;96182.53;;;11.59;82.71
15405;BME280;7801;48.124;11.590;2023-02-18T06:31:48;96186.34;;;11.48;83.07
15405;BME280;7801;48.124;11.590;2023-02-18T06:34:14;96188.41;;;11.56;82.48
15405;BME280;7801;48.124;11.590;2023-02-18T06:36:39;96189.75;;;11.54;82.83
15405;BME280;7801;48.124;11.590;2023-02-18T06:39:05;96193.19;;;11.59;82.28
15405;BME280;7801;48.124;11.590;2023-02-18T06:41:30;96186.28;;;11.58;82.32
15405;BME280;7801;48.124;11.590;2023-02-18T06:43:56;96191.91;;;11.52;82.27
15405;BME280;7801;48.124;11.590;2023-02-18T06:46:21;96190.75;;;11.63;82.12
15405;BME280;7801;48.124;11.590;2023-02-18T06:48:46;96188.31;;;11.66;81.79
15405;BME280;7801;48.124;11.590;2023-02-18T06:51:12;96189.16;;;11.62;81.58
15405;BME280;7801;48.124;11.590;2023-02-18T06:53:37;96185.62;;;11.71;81.41
15405;BME280;7801;48.124;11.590;2023-02-18T06:56:03;96173.91;;;11.78;81.13
15405;BME280;7801;48.124;11.590;2023-02-18T06:58:28;96172.84;;;11.74;81.09
15405;BME280;7801;48.124;11.590;2023-02-18T07:00:53;96181.34;;;11.76;81.00
15405;BME280;7801;48.124;11.590;2023-02-18T07:03:19;96170.78;;;11.65;81.07
15405;BME280;7801;48.124;11.590;2023-02-18T07:05:44;96173.13;;;11.72;81.06
15405;BME280;7801;48.124;11.590;2023-02-18T07:08:10;96176.84;;;11.76;81.02
15405;BME280;7801;48.124;11.590;2023-02-18T07:10:35;96178.44;;;11.72;80.96
15405;BME280;7801;48.124;11.590;2023-02-18T07:13:01;96173.13;;;11.72;81.05
15405;BME280;7801;48.124;11.590;2023-02-18T07:15:26;96178.72;;;11.70;81.01
15405;BME280;7801;48.124;11.590;2023-02-18T07:17:52;96177.63;;;11.77;80.72
15405;BME280;7801;48.124;11.590;2023-02-18T07:20:19;96169.69;;;11.71;80.73
15405;BME280;7801;48.124;11.590;2023-02-18T07:22:45;96164.34;;;11.71;80.42
15405;BME280;7801;48.124;11.590;2023-02-18T07:25:10;96166.22;;;11.76;80.54
15405;BME280;7801;48.124;11.590;2023-02-18T07:27:36;96168.88;;;11.76;80.59
15405;BME280;7801;48.124;11.590;2023-02-18T07:30:01;96163.00;;;11.79;80.06
15405;BME280;7801;48.124;11.590;2023-02-18T07:32:27;96167.56;;;11.68;80.01
15405;BME280;7801;48.124;11.590;2023-02-18T07:34:52;96174.94;;;11.82;79.76
15405;BME280;7801;48.124;11.590;2023-02-18T07:37:20;96198.81;;;11.87;80.11
15405;BME280;7801;48.124;11.590;2023-02-18T07:39:46;96181.09;;;11.77;79.66
15405;BME280;7801;48.124;11.590;2023-02-18T07:42:11;96159.78;;;11.82;79.68
15405;BME280;7801;48.124;11.590;2023-02-18T07:44:37;96159.50;;;11.84;79.31
15405;BME280;7801;48.124;11.590;2023-02-18T07:47:04;96174.44;;;11.75;79.44
15405;BME280;7801;48.124;11.590;2023-02-18T07:49:30;96165.16;;;11.77;79.89
15405;BME280;7801;48.124;11.590;2023-02-18T07:51:56;96167.53;;;11.79;79.82
15405;BME280;7801;48.124;11.590;2023-02-18T07:54:22;96158.66;;;11.88;79.53
15405;BME280;7801;48.124;11.590;2023-02-18T07:56:47;96166.69;;;11.83;79.71
15405;BME280;7801;48.124;11.590;2023-02-18T07:59:12;96169.38;;;11.78;80.24
15405;BME280;7801;48.124;11.590;2023-02-18T08:01:38;96173.66;;;11.74;80.43
15405;BME280;7801;48.124;11.590;2023-02-18T08:04:04;96176.03;;;11.76;80.72
15405;BME280;7801;48.124;11.590;2023-02-18T08:06:32;96163.72;;;11.85;80.65
15405;BME280;7801;48.124;11.590;2023-02-18T08:08:59;96169.91;;;11.75;80.42
15405;BME280;7801;48.124;11.590;2023-02-18T08:11:24;96156.91;;;11.74;80.71
15405;BME280;7801;48.124;11.590;2023-02-18T08:13:50;96152.37;;;11.79;80.77
15405;BME280;7801;48.124;11.590;2023-02-18T08:16:18;96134.00;;;11.83;80.58
15405;BME280;7801;48.124;11.590;2023-02-18T08:18:43;96151.59;;;11.74;80.73
15405;BME280;7801;48.124;11.590;2023-02-18T08:21:09;96143.31;;;11.80;80.86
15405;BME280;7801;48.124;11.590;2023-02-18T08:23:34;96147.84;;;11.80;80.51
15405;BME280;7801;48.124;11.590;2023-02-18T08:26:00;96144.63;;;11.83;80.62
15405;BME280;7801;48.124;11.590;2023-02-18T08:28:25;96142.19;;;11.86;80.28
15405;BME280;7801;48.124;11.590;2023-02-18T08:30:53;96147.06;;;11.79;79.72
15405;BME280;7801;48.124;11.590;2023-02-18T08:33:19;96128.41;;;11.84;79.98
15405;BME280;7801;48.124;11.590;2023-02-18T08:35:45;96148.91;;;11.79;79.86
15405;BME280;7801;48.124;11.590;2023-02-18T08:38:11;96112.38;;;11.89;79.56
15405;BME280;7801;48.124;11.590;2023-02-18T08:40:37;96123.91;;;11.80;79.92
15405;BME280;7801;48.124;11.590;2023-02-18T08:43:03;96127.88;;;11.82;80.11
15405;BME280;7801;48.124;11.590;2023-02-18T08:45:28;96129.47;;;11.83;79.95
15405;BME280;7801;48.124;11.590;2023-02-18T08:47:54;96122.28;;;11.84;80.29
15405;BME280;7801;48.124;11.590;2023-02-18T08:50:19;96116.03;;;11.98;79.93
15405;BME280;7801;48.124;11.590;2023-02-18T08:52:46;96109.72;;;11.89;80.25
15405;BME280;7801;48.124;11.590;2023-02-18T08:55:11;96100.38;;;11.92;80.39
15405;BME280;7801;48.124;11.590;2023-02-18T08:57:37;96112.06;;;11.96;80.11
15405;BME280;7801;48.124;11.590;2023-02-18T09:00:02;96107.06;;;12.13;79.80
15405;BME280;7801;48.124;11.590;2023-02-18T09:02:30;96101.19;;;12.16;79.50
15405;BME280;7801;48.124;11.590;2023-02-18T09:04:56;96111.84;;;12.16;78.76
15405;BME280;7801;48.124;11.590;2023-02-18T09:07:21;96118.28;;;12.10;79.20
15405;BME280;7801;48.124;11.590;2023-02-18T09:09:46;96124.84;;;12.18;78.77
15405;BME280;7801;48.124;11.590;2023-02-18T09:12:12;96125.12;;;12.16;78.79
15405;BME280;7801;48.124;11.590;2023-02-18T09:14:37;96121.78;;;12.29;78.24
15405;BME280;7801;48.124;11.590;2023-02-18T09:17:02;96105.38;;;12.22;77.87
15405;BME280;7801;48.124;11.590;2023-02-18T09:19:28;96119.75;;;12.21;77.94
15405;BME280;7801;48.124;11.590;2023-02-18T09:21:53;96112.06;;;12.20;78.17
15405;BME280;7801;48.124;11.590;2023-02-18T09:24:19;96102.72;;;12.22;77.82
15405;BME280;7801;48.124;11.590;2023-02-18T09:26:45;96122.13;;;12.23;77.48
15405;BME280;7801;48.124;11.590;2023-02-18T09:29:10;96112.06;;;12.20;77.65
15405;BME280;7801;48.124;11.590;2023-02-18T09:31:36;96104.47;;;12.32;77.62
15405;BME280;7801;48.124;11.590;2023-02-18T09:34:04;96118.59;;;12.27;77.42
15405;BME280;7801;48.124;11.590;2023-02-18T09:36:30;96104.38;;;12.18;77.68
15405;BME280;7801;48.124;11.590;2023-02-18T09:38:55;96115.50;;;12.20;77.81
15405;BME280;7801;48.124;11.590;2023-02-18T09:41:43;96122.94;;;12.23;77.69
15405;BME280;7801;48.124;11.590;2023-02-18T09:44:12;96099.69;;;12.29;77.09
15405;BME280;7801;48.124;11.590;2023-02-18T09:49:28;96087.47;;;12.28;77.21
15405;BME280;7801;48.124;11.590;2023-02-18T09:51:56;96082.78;;;12.44;76.65
15405;BME280;7801;48.124;11.590;2023-02-18T09:54:27;96074.78;;;12.44;76.77
15405;BME280;7801;48.124;11.590;2023-02-18T09:56:52;96072.28;;;12.52;75.79
15405;BME280;7801;48.124;11.590;2023-02-18T09:59:20;96068.69;;;12.43;76.01
15405;BME280;7801;48.124;11.590;2023-02-18T10:01:48;96055.72;;;12.55;75.92
15405;BME280;7801;48.124;11.590;2023-02-18T10:04:18;96061.84;;;12.56;75.20
15405;BME280;7801;48.124;11.590;2023-02-18T10:06:46;96064.44;;;12.61;75.25
15405;BME280;7801;48.124;11.590;2023-02-18T10:09:19;96069.25;;;12.59;75.06
15405;BME280;7801;48.124;11.590;2023-02-18T10:11:49;96060.03;;;12.70;74.83
15405;BME280;7801;48.124;11.590;2023-02-18T10:14:17;96063.06;;;12.82;74.79
15405;BME280;7801;48.124;11.590;2023-02-18T10:16:43;96055.38;;;12.81;73.94
15405;BME280;7801;48.124;11.590;2023-02-18T10:21:45;96029.00;;;12.98;73.14
15405;BME280;7801;48.124;11.590;2023-02-18T10:24:29;96031.47;;;12.94;73.53
15405;BME280;7801;48.124;11.590;2023-02-18T10:26:57;96030.53;;;13.04;72.99
15405;BME280;7801;48.124;11.590;2023-02-18T10:29:23;96024.81;;;13.11;72.64
15405;BME280;7801;48.124;11.590;2023-02-18T10:32:05;96016.81;;;13.11;72.63
15405;BME280;7801;48.124;11.590;2023-02-18T10:34:41;96021.00;;;13.17;72.42
15405;BME280;7801;48.124;11.590;2023-02-18T10:37:26;96009.13;;;13.28;72.29
15405;BME280;7801;48.124;11.590;2023-02-18T10:45:40;96001.50;;;13.35;71.02
15405;BME280;7801;48.124;11.590;2023-02-18T10:50:46;95995.31;;;13.53;70.42
15405;BME280;7801;48.124;11.590;2023-02-18T10:53:32;95997.88;;;13.58;70.70
15405;BME280;7801;48.124;11.590;2023-02-18T10:55:58;95982.88;;;13.49;70.04
15405;BME280;7801;48.124;11.590;2023-02-18T10:58:36;95989.00;;;13.49;69.91
15405;BME280;7801;48.124;11.590;2023-02-18T11:01:13;95973.41;;;13.56;69.52
15405;BME280;7801;48.124;11.590;2023-02-18T11:03:42;95971.63;;;13.52;70.01
15405;BME280;7801;48.124;11.590;2023-02-18T11:08:45;95946.56;;;13.66;69.42
15405;BME280;7801;48.124;11.590;2023-02-18T11:11:16;95951.06;;;13.52;69.73
15405;BME280;7801;48.124;11.590;2023-02-18T11:13:42;95933.13;;;13.58;69.45
15405;BME280;7801;48.124;11.590;2023-02-18T11:16:10;95933.50;;;13.79;69.04
15405;BME280;7801;48.124;11.590;2023-02-18T11:18:41;95923.03;;;13.82;67.70
15405;BME280;7801;48.124;11.590;2023-02-18T11:23:50;95910.84;;;14.03;66.75
15405;BME280;7801;48.124;11.590;2023-02-18T11:26:17;95908.97;;;14.04;67.30
15405;BME280;7801;48.124;11.590;2023-02-18T11:28:48;95928.72;;;14.03;66.47
15405;BME280;7801;48.124;11.590;2023-02-18T11:31:18;95920.81;;;13.98;67.06
15405;BME280;7801;48.124;11.590;2023-02-18T11:33:48;95922.78;;;14.06;66.34
15405;BME280;7801;48.124;11.590;2023-02-18T11:36:21;95913.47;;;14.17;66.56
15405;BME280;7801;48.124;11.590;2023-02-18T11:39:17;95918.59;;;14.14;65.96
15405;BME280;7801;48.124;11.590;2023-02-18T11:41:52;95914.69;;;14.11;66.38
15405;BME280;7801;48.124;11.590;2023-02-18T11:44:27;95903.34;;;14.28;65.89
15405;BME280;7801;48.124;11.590;2023-02-18T11:46:59;95906.31;;;14.26;65.96
15405;BME280;7801;48.124;11.590;2023-02-18T11:49:26;95904.75;;;14.25;65.83
15405;BME280;7801;48.124;11.590;2023-02-18T11:51:54;95907.41;;;14.25;65.14
15405;BME280;7801;48.124;11.590;2023-02-18T11:54:28;95908.25;;;14.34;65.15
15405;BME280;7801;48.124;11.590;2023-02-18T11:57:02;95900.75;;;14.36;65.64
15405;BME280;7801;48.124;11.590;2023-02-18T11:59:31;95889.41;;;14.31;65.05
15405;BME280;7801;48.124;11.590;2023-02-18T12:04:55;95899.56;;;14.42;64.64
15405;BME280;7801;48.124;11.590;2023-02-18T12:07:25;95886.59;;;14.36;64.33
15405;BME280;7801;48.124;11.590;2023-02-18T12:09:58;95889.12;;;14.32;64.53
15405;BME280;7801;48.124;11.590;2023-02-18T12:12:28;95887.53;;;14.31;64.82
15405;BME280;7801;48.124;11.590;2023-02-18T12:14:55;95884.13;;;14.39;65.17
15405;BME280;7801;48.124;11.590;2023-02-18T12:17:40;95872.38;;;14.40;65.10
15405;BME280;7801;48.124;11.590;2023-02-18T12:28:56;95850.91;;;14.46;64.97
15405;BME280;7801;48.124;11.590;2023-02-18T12:31:59;95851.62;;;14.60;64.33
15405;BME280;7801;48.124;11.590;2023-02-18T12:37:48;95839.81;;;14.52;64.19
15405;BME280;7801;48.124;11.590;2023-02-18T12:43:27;95831.00;;;14.52;63.88
15405;BME280;7801;48.124;11.590;2023-02-18T12:54:42;95838.25;;;14.37;64.37
15405;BME280;7801;48.124;11.590;2023-02-18T12:59:46;95820.31;;;14.29;64.48
15405;BME280;7801;48.124;11.590;2023-02-18T13:05:10;95832.09;;;14.51;64.33
15405;BME280;7801;48.124;11.590;2023-02-18T13:13:25;95821.84;;;14.44;64.39
15405;BME280;7801;48.124;11.590;2023-02-18T13:16:04;95830.22;;;14.51;65.05
15405;BME280;7801;48.124;11.590;2023-02-18T13:19:40;95841.72;;;14.60;65.31
15405;BME280;7801;48.124;11.590;2023-02-18T13:21:46;95827.38;;;14.48;65.76
15405;BME280;7801;48.124;11.590;2023-02-18T13:24:33;95813.12;;;14.52;65.33
15405;BME280;7801;48.124;11.590;2023-02-18T13:27:13;95829.56;;;14.46;65.11
15405;BME280;7801;48.124;11.590;2023-02-18T13:30:14;95819.47;;;14.42;64.96
15405;BME280;7801;48.124;11.590;2023-02-18T13:35:28;95823.47;;;14.31;65.67
15405;BME280;7801;48.124;11.590;2023-02-18T13:40:41;95818.63;;;14.33;66.13
15405;BME280;7801;48.124;11.590;2023-02-18T13:48:36;95810.84;;;14.23;67.20
15405;BME280;7801;48.124;11.590;2023-02-18T13:51:04;95807.28;;;14.28;67.26
15405;BME280;7801;48.124;11.590;2023-02-18T13:53:38;95820.03;;;14.31;66.43
15405;BME280;7801;48.124;11.590;2023-02-18T13:56:19;95813.62;;;14.18;66.22
15405;BME280;7801;48.124;11.590;2023-02-18T13:58:50;95810.31;;;14.13;66.14
15405;BME280;7801;48.124;11.590;2023-02-18T14:01:39;95819.03;;;14.04;66.10
15405;BME280;7801;48.124;11.590;2023-02-18T14:09:50;95814.59;;;14.00;65.67
15405;BME280;7801;48.124;11.590;2023-02-18T14:25:51;95807.75;;;13.85;65.55
15405;BME280;7801;48.124;11.590;2023-02-18T14:31:00;95804.97;;;13.90;65.40
15405;BME280;7801;48.124;11.590;2023-02-18T14:33:29;95780.00;;;13.86;65.51
15405;BME280;7801;48.124;11.590;2023-02-18T14:41:31;95809.63;;;13.85;65.36
15405;BME280;7801;48.124;11.590;2023-02-18T14:47:10;95806.97;;;13.85;64.74
15405;BME280;7801;48.124;11.590;2023-02-18T14:49:43;95829.25;;;13.66;64.94
15405;BME280;7801;48.124;11.590;2023-02-18T14:54:56;95801.34;;;13.72;65.49
15405;BME280;7801;48.124;11.590;2023-02-18T14:57:39;95796.03;;;13.72;65.04
15405;BME280;7801;48.124;11.590;2023-02-18T15:00:20;95799.81;;;13.71;64.79
15405;BME280;7801;48.124;11.590;2023-02-18T15:02:49;95793.28;;;13.64;65.04
15405;BME280;7801;48.124;11.590;2023-02-18T15:05:20;95800.50;;;13.63;64.16
15405;BME280;7801;48.124;11.590;2023-02-18T15:08:05;95791.34;;;13.56;65.30
15405;BME280;7801;48.124;11.590;2023-02-18T15:10:39;95795.78;;;13.60;65.15
15405;BME280;7801;48.124;11.590;2023-02-18T15:15:41;95806.34;;;13.52;65.43
15405;BME280;7801;48.124;11.590;2023-02-18T15:18:19;95809.13;;;13.47;66.00
15405;BME280;7801;48.124;11.590;2023-02-18T15:20:45;95803.69;;;13.52;65.82
15405;BME280;7801;48.124;11.590;2023-02-18T15:23:14;95811.22;;;13.50;65.87
15405;BME280;7801;48.124;11.590;2023-02-18T15:25:44;95805.94;;;13.58;65.53
15405;BME280;7801;48.124;11.590;2023-02-18T15:28:30;95791.13;;;13.52;65.42